• Join FlightAware (Why Join?)
  • Login
  • US Flag 
03:54PM EDT


 

Airport Tracker/Info


-or-


 

Live Flight TrackerFlight Track Log ✈ N83241 ✈ 08-May-2013 ✈ KSUS - KLCK

Flight Track Log - Related Links

Times and Time Zones

All times are in EDT time to prevent confusion due to time zone crossing. See the N83241 flight status page for this flight to view local times or setup timezone preferences in your user account.

Time Position Orientation Groundspeed Altitude Reporting Facility
EDT Latitude Longitude Course Direction KTS MPH feet Rate Location/Type
09:20AM 38.6333 -90.4167 127° Southeast 139 160 2,500  Level Gateway (St. Louis) TRACON
09:22AM 38.6749 -90.3752 38° Northeast  Level FlightAware Approximate
09:22AM 38.5833 -90.3333 38° Northeast 148 170 3,100  Level Gateway (St. Louis) TRACON
09:24AM 38.5955 -90.2730 90° East  Level Estimated
09:24AM 38.5500 -90.2333 90° East 135 155 3,500  Level Gateway (St. Louis) TRACON
09:26AM 38.5625 -90.1731 75° East  Level Estimated
09:27AM 38.5333 -90.1167 75° East 129 148 5,100  Level Gateway (St. Louis) TRACON
09:29AM 38.5471 -90.0517 75° East  Level Estimated
09:29AM 38.5667 -90.0167 75° East 127 146 6,300  Level Gateway (St. Louis) TRACON
09:31AM 38.5793 -89.9565 75° East  Level Estimated
09:33AM 38.6328 -89.8309 75° East  Level Estimated
09:38AM 38.6502 -89.6144 75° East  Level Estimated
09:39AM 38.6603 -89.5655 75° East  Level Estimated
09:40AM 38.6703 -89.5165 75° East  Level Estimated
09:41AM 38.6804 -89.4676 75° East  Level Estimated
09:42AM 38.6904 -89.4186 75° East  Level Estimated
09:43AM 38.7003 -89.3696 75° East  Level Estimated
09:44AM 38.7103 -89.3206 75° East  Level Estimated
09:45AM 38.7202 -89.2716 75° East  Level Estimated
09:46AM 38.7301 -89.2226 75° East  Level Estimated
09:47AM 38.7400 -89.1736 75° East  Level Estimated
09:48AM 38.7499 -89.1245 76° East  Level Estimated
09:49AM 38.7597 -89.0755 76° East  Level Estimated
09:50AM 38.7696 -89.0264 76° East  Level Estimated
09:51AM 38.7794 -88.9773 76° East  Level Estimated
09:52AM 38.7892 -88.9282 76° East  Level Estimated
09:53AM 38.7989 -88.8791 76° East  Level Estimated
09:54AM 38.8087 -88.8300 76° East  Level Estimated
09:55AM 38.8184 -88.7808 76° East  Level Estimated
09:56AM 38.8281 -88.7317 76° East  Level Estimated
09:57AM 38.8378 -88.6825 76° East  Level Estimated
09:58AM 38.8475 -88.6333 76° East  Level Estimated
09:59AM 38.8571 -88.5842 76° East  Level Estimated
10:00AM 38.8668 -88.5349 76° East  Level Estimated
10:01AM 38.8764 -88.4857 76° East  Level Estimated
10:02AM 38.8860 -88.4365 76° East  Level Estimated
10:03AM 38.8955 -88.3872 76° East  Level Estimated
10:04AM 38.9051 -88.3380 76° East  Level Estimated
10:05AM 38.9146 -88.2887 76° East  Level Estimated
10:06AM 38.9241 -88.2394 76° East  Level Estimated
10:07AM 38.9336 -88.1901 76° East  Level Estimated
10:08AM 38.9430 -88.1408 76° East  Level Estimated
10:09AM 38.9525 -88.0915 76° East  Level Estimated
10:10AM 38.9619 -88.0421 76° East  Level Estimated
10:11AM 38.9713 -87.9928 76° East  Level Estimated
10:12AM 38.9807 -87.9434 76° East  Level Estimated
10:13AM 38.9900 -87.8940 76° East  Level Estimated
10:14AM 38.9994 -87.8447 76° East  Level Estimated
10:15AM 39.0087 -87.7952 76° East  Level Estimated
10:16AM 39.0180 -87.7458 76° East  Level Estimated
10:17AM 39.0272 -87.6964 76° East  Level Estimated
10:18AM 39.0365 -87.6469 76° East  Level Estimated
10:19AM 39.0457 -87.5975 76° East  Level Estimated
10:20AM 39.0549 -87.5480 77° East  Level Estimated
10:21AM 39.0641 -87.4985 77° East  Level Estimated
10:22AM 39.0733 -87.4490 77° East  Level Estimated
10:23AM 39.0824 -87.3995 77° East  Level Estimated
10:24AM 39.0916 -87.3500 77° East  Level Estimated
10:25AM 39.1007 -87.3005 77° East  Level Estimated
10:26AM 39.1098 -87.2509 77° East  Level Estimated
10:27AM 39.1188 -87.2014 77° East  Level Estimated
10:28AM 39.1279 -87.1518 77° East  Level Estimated
10:29AM 39.1369 -87.1022 77° East  Level Estimated
10:30AM 39.1459 -87.0526 77° East  Level Estimated
10:31AM 39.1549 -87.0030 77° East  Level Estimated
10:32AM 39.1638 -86.9534 77° East  Level Estimated
10:33AM 39.1728 -86.9037 77° East  Level Estimated
10:34AM 39.1817 -86.8541 77° East  Level Estimated
10:35AM 39.1906 -86.8044 77° East  Level Estimated
10:36AM 39.1995 -86.7548 77° East  Level Estimated
10:37AM 39.2083 -86.7051 77° East  Level Estimated
10:38AM 39.2171 -86.6554 77° East  Level Estimated
10:39AM 39.2259 -86.6057 77° East  Level Estimated
10:40AM 39.2347 -86.5559 77° East  Level Estimated
10:41AM 39.2435 -86.5062 77° East  Level Estimated
10:42AM 39.2523 -86.4565 77° East  Level Estimated
10:43AM 39.2610 -86.4067 77° East  Level Estimated
10:44AM 39.2697 -86.3569 77° East  Level Estimated
10:45AM 39.2784 -86.3071 77° East  Level Estimated
10:46AM 39.2870 -86.2573 77° East  Level Estimated
10:47AM 39.2957 -86.2075 77° East  Level Estimated
10:48AM 39.3043 -86.1577 77° East  Level Estimated
10:49AM 39.3129 -86.1079 77° East  Level Estimated
10:50AM 39.3215 -86.0580 77° East  Level Estimated
10:51AM 39.3300 -86.0082 77° East  Level Estimated
10:52AM 39.3386 -85.9583 78° East  Level Estimated
10:53AM 39.3471 -85.9084 78° East  Level Estimated
10:54AM 39.3556 -85.8585 78° East  Level Estimated
10:55AM 39.3641 -85.8086 78° East  Level Estimated
10:56AM 39.3725 -85.7587 78° East  Level Estimated
10:57AM 39.3809 -85.7087 78° East  Level Estimated
10:58AM 39.3893 -85.6588 78° East  Level Estimated
10:59AM 39.3977 -85.6088 78° East  Level Estimated
11:00AM 39.4061 -85.5589 78° East  Level Estimated
11:01AM 39.4144 -85.5089 78° East  Level Estimated
11:02AM 39.4228 -85.4589 78° East  Level Estimated
11:03AM 39.4311 -85.4089 78° East  Level Estimated
11:04AM 39.4393 -85.3589 78° East  Level Estimated
11:05AM 39.4476 -85.3089 78° East  Level Estimated
11:06AM 39.4558 -85.2588 78° East  Level Estimated
11:07AM 39.4641 -85.2088 78° East  Level Estimated
11:08AM 39.4723 -85.1587 78° East  Level Estimated
11:09AM 39.4804 -85.1086 78° East  Level Estimated
11:10AM 39.4886 -85.0585 78° East  Level Estimated
11:11AM 39.4967 -85.0085 78° East  Level Estimated
11:12AM 39.5048 -84.9583 78° East  Level Estimated
11:13AM 39.5129 -84.9082 78° East  Level Estimated
11:14AM 39.5210 -84.8581 78° East  Level Estimated
11:15AM 39.5290 -84.8080 78° East  Level Estimated
11:16AM 39.5370 -84.7578 78° East  Level Estimated
11:17AM 39.5450 -84.7076 78° East  Level Estimated
11:18AM 39.5530 -84.6574 78° East  Level Estimated
11:19AM 39.5610 -84.6072 78° East  Level Estimated
11:20AM 39.5689 -84.5571 78° East  Level Estimated
11:21AM 39.5768 -84.5068 78° East  Level Estimated
11:22AM 39.5847 -84.4566 78° East  Level Estimated
11:23AM 39.5926 -84.4064 78° East  Level Estimated
11:24AM 39.6004 -84.3561 79° East  Level Estimated
11:25AM 39.6082 -84.3059 79° East  Level Estimated
11:26AM 39.6161 -84.2556 79° East  Level Estimated
11:27AM 39.6238 -84.2053 79° East  Level Estimated
11:28AM 39.6316 -84.1550 79° East  Level Estimated
11:29AM 39.6393 -84.1047 79° East  Level Estimated
11:30AM 39.6471 -84.0544 79° East  Level Estimated
11:31AM 39.6548 -84.0041 79° East  Level Estimated
11:32AM 39.6624 -83.9537 79° East  Level Estimated
11:33AM 39.6701 -83.9034 79° East  Level Estimated
11:34AM 39.6777 -83.8530 79° East  Level Estimated
11:35AM 39.6853 -83.8026 79° East  Level Estimated
11:36AM 39.6929 -83.7523 79° East  Level Estimated
11:37AM 39.7005 -83.7019 79° East  Level Estimated
11:38AM 39.7080 -83.6515 79° East  Level Estimated
11:39AM 39.7156 -83.6010 79° East  Level Estimated
11:40AM 39.7231 -83.5506 79° East  Level Estimated
11:41AM 39.7305 -83.5002 79° East  Level Estimated
11:42AM 39.7380 -83.4497 79° East  Level Estimated
11:43AM 39.7454 -83.3993 79° East  Level Estimated
11:44AM 39.7528 -83.3488 79° East  Level Estimated
11:45AM 39.7602 -83.2983 79° East  Level Estimated
11:46AM 39.7676 -83.2478 79° East  Level Estimated
11:47AM 39.7750 -83.1973 79° East  Level Estimated
11:48AM 39.7823 -83.1468 79° East  Level Estimated
11:49AM 39.7896 -83.0963 79° East  Level Estimated
11:50AM 39.7969 -83.0457 79° East  Level Estimated
11:51AM 39.8041 -82.9952 79° East  Level Estimated
11:52AM 39.8114 -82.9446 79° East  Level Estimated
11:53AM 39.8138 -82.9278 79° East  Level Estimated
11:54AM 39.8138 -82.9278 123° Southeast  Level Estimated
11:55AM 39.8138 -82.9278 123° Southeast  Level Estimated
11:56AM 39.8138 -82.9278 123° Southeast  Level Estimated
11:57AM 39.8138 -82.9278 123° Southeast  Level Estimated
11:58AM 39.8138 -82.9278 123° Southeast  Level Estimated
11:59AM 39.8138 -82.9278 123° Southeast  Level Estimated
12:00PM 39.8138 -82.9278 123° Southeast  Level Estimated
12:01PM 39.8138 -82.9278 123° Southeast  Level Estimated
12:02PM 39.8138 -82.9278 123° Southeast  Level Estimated
12:03PM 39.8138 -82.9278 123° Southeast  Level Estimated
12:04PM 39.8138 -82.9278 123° Southeast  Level Estimated
12:05PM 39.8138 -82.9278 123° Southeast  Level Estimated
12:06PM 39.8138 -82.9278 123° Southeast  Level Estimated
12:07PM 39.8138 -82.9278 123° Southeast  Level Estimated
12:08PM 39.8138 -82.9278 123° Southeast  Level Estimated
12:09PM 39.8138 -82.9278 123° Southeast  Level Estimated
12:10PM 39.8138 -82.9278 123° Southeast  Level Estimated